Harleyville, SC

8:57 AM EDT on August 18, 2017 (GMT -0400)
St. George Airport Area | | Change Station

Elev 92 ft 33.19 °N, 80.51 °W | Updated 16 seconds ago

Clear
Clear
89.8 °F
Feels Like 105 °F
N
6.0
Wind Variable Wind from NNW

Today
High -- | Low -- °F
--% Chance of Precip.
Yesterday
High -- | Low -- °F
Precip. -- in
Pressure 30.00 in
Visibility 10.0 miles
Clouds Scattered Clouds 4900 ft
Heat Index 105 °F
Dew Point 78 °F
Humidity 70%
Rainfall 0.00 in
Snow Depth Not available.
6:46 AM 8:03 PM
Waning Crescent, 14% visible
METAR KDYB 181255Z AUTO 00000KT 10SM SCT049 27/25 A3000 RMK AO1
Pressure 30.00 in
Visibility 10.0 miles
Clouds Scattered Clouds 4900 ft
Heat Index 105 °F
Dew Point 78 °F
Humidity 70%
Rainfall 0.00 in
Snow Depth Not available.
6:46 AM 8:03 PM
Waning Crescent, 14% visible
METAR KDYB 181255Z AUTO 00000KT 10SM SCT049 27/25 A3000 RMK AO1

Get Severe Weather Alerts

Thanks for signing up!

Be on the lookout for a verification email in your inbox.

You'll start receiving the daily forecast at 6 AM.

×

10-Day Weather Forecast

Almanac

Astronomy

Aug. 18, 2017 Rise Set
Actual Time
Civil Twilight
Nautical Twilight
Astronomical Twilight
Moon
Length of Visible Light
Length of Day
Tomorrow will be .
, % of the Moon is Illuminated

Today's Extremes

State Highs State Lows

Community

WunderPhotos

Category 6

Welcome to Category 6. This is the collective home for Weather Underground's featured writeups by Dr. Jeff Masters (right), Bob Henson (left), Chris Burt, and other regular contributors.

Nearby

Air Quality

  Air Quality AQ Index Pollutant
Not available.

Snow Depth

Station Depth Elevation

Earthquake Activity

City Distance Mag. Time & Date
Minimum magnitude displayed is 2.5.

Coastal Water Temperatures

Place Temperature

Stations

Nearby Weather Stations

Station Location Temp. Windchill Dew Point Humidity Wind Precip. Elev Updated Type
                   

Watches & Warnings

There are currently no watches in effect.